KB3MVG-13 Weather Reports


Display with metric or nautical units.
time (UTC)temp
F
wind
direction
speed
MPH
gust
MPH
rain 1hr
in
rain 24hr
in
rain mn
in
humidity
%
barometer
mb
20240225120015 40 0.0 3.0 0.00 0.00 0.00 15 1016.7
20240225115015 40 153 0.0 0.0 0.00 0.00 0.00 15 1016.7
20240225114015 40 200 0.0 0.0 0.00 0.00 0.00 16 1016.5
20240225113016 40 200 0.0 0.0 0.00 0.00 0.00 16 1016.6
20240225112015 41 200 0.0 0.0 0.00 0.00 0.00 15 1017.1
20240225111015 41 200 0.0 0.0 0.00 0.00 0.00 16 1017.0
20240225110036 43 0.0 2.0 0.00 0.00 0.00 13 1017.5
20240225105015 43 192 0.0 0.0 0.00 0.00 0.00 12 1017.5
20240225104015 42 203 1.0 5.0 0.00 0.00 0.00 11 1017.4
20240225103015 40 199 0.0 0.0 0.00 0.00 0.00 15 1017.5
20240225102015 40 199 0.0 0.0 0.00 0.00 0.00 15 1017.4
20240225101015 39 199 0.0 0.0 0.00 0.00 0.00 16 1017.7
20240225100055 39 199 0.0 0.0 0.00 0.00 0.00 16 1017.6
20240225095035 39 199 0.0 0.0 0.00 0.00 0.00 16 1017.6
20240225094015 40 199 0.0 0.0 0.00 0.00 0.00 15 1017.9
20240225093015 40 199 0.0 0.0 0.00 0.00 0.00 17 1017.9
20240225092016 41 199 0.0 0.0 0.00 0.00 0.00 15 1018.6
20240225091015 41 199 0.0 0.0 0.00 0.00 0.00 13 1017.9
20240225090015 41 199 0.0 0.0 0.00 0.00 0.00 15 1018.3
20240225085015 42 199 0.0 0.0 0.00 0.00 0.00 14 1018.4
20240225084015 42 0.0 2.0 0.00 0.00 0.00 14 1018.4
20240225083015 41 198 0.0 0.0 0.00 0.00 0.00 17 1018.7
20240225082015 42 198 0.0 0.0 0.00 0.00 0.00 15 1018.8
20240225081016 42 198 0.0 0.0 0.00 0.00 0.00 13 1018.9
20240225080015 42 198 0.0 0.0 0.00 0.00 0.00 15 1018.9
20240225075015 40 180 0.0 0.0 0.00 0.00 0.00 17 1018.8
20240225074015 40 180 0.0 0.0 0.00 0.00 0.00 15 1018.8
20240225073015 40 180 0.0 0.0 0.00 0.00 0.00 15 1018.8
20240225072035 40 180 0.0 0.0 0.00 0.00 0.00 16 1019.0
20240225071015 41 180 0.0 0.0 0.00 0.00 0.00 16 1019.1
20240225070015 41 180 0.0 0.0 0.00 0.00 0.00 15 1019.2
20240225065016 41 180 0.0 0.0 0.00 0.00 0.00 16 1019.2
20240225064036 41 180 0.0 0.0 0.00 0.00 0.00 15 1019.1
20240225063017 41 180 0.0 0.0 0.00 0.00 0.00 18 1019.4
20240225062016 41 180 0.0 0.0 0.00 0.00 0.00 16 1019.5
20240225061036 41 180 0.0 0.0 0.00 0.00 0.00 15 1018.9
20240225060037 41 180 0.0 0.0 0.00 0.00 0.00 17 1019.0
20240225055016 41 180 0.0 0.0 0.00 0.00 0.00 16 1019.0
20240225054016 41 180 0.0 0.0 0.00 0.00 0.00 16 1019.2
20240225053017 41 180 0.0 0.0 0.00 0.00 0.00 17 1019.2
20240225052016 41 180 0.0 0.0 0.00 0.00 0.00 16 1018.8
20240225051016 41 180 0.0 0.0 0.00 0.00 0.00 17 1018.1
20240225050016 41 180 0.0 0.0 0.00 0.00 0.00 17 1017.8
20240225045016 42 180 0.0 0.0 0.00 0.00 0.00 15 1017.9
20240225044016 43 180 0.0 0.0 0.00 0.00 0.00 14 1018.0
20240225043016 43 180 0.0 0.0 0.00 0.00 0.00 14 1018.1
20240225042016 43 180 0.0 0.0 0.00 0.00 0.00 15 1017.8
20240225041016 43 180 0.0 0.0 0.00 0.00 0.00 13 1018.0
20240225040016 44 180 0.0 0.0 0.00 0.00 0.00 15 1018.0
20240225035016 44 180 0.0 0.0 0.00 0.00 0.00 14 1017.7
20240225034016 45 180 0.0 0.0 0.00 0.00 0.00 12 1017.6
20240225033016 45 180 0.0 0.0 0.00 0.00 0.00 12 1018.0
20240225032016 46 180 0.0 0.0 0.00 0.00 0.00 12 1018.2
20240225031016 47 180 0.0 0.0 0.00 0.00 0.00 11 1018.2
20240225030017 48 180 0.0 0.0 0.00 0.00 0.00 12 1018.2
20240225025016 49 180 0.0 0.0 0.00 0.00 0.00 9 1018.2
20240225024016 50 180 0.0 0.0 0.00 0.00 0.00 10 1018.2
20240225023016 51 180 0.0 0.0 0.00 0.00 0.00 10 1018.2
20240225022016 52 0.0 1.0 0.00 0.00 0.00 9 1018.5
20240225021036 53 203 1.0 4.0 0.00 0.00 0.00 9 1018.1
20240225020016 53 203 1.0 8.0 0.00 0.00 0.00 9 1017.7
20240225015016 53 203 2.0 5.0 0.00 0.00 0.00 8 1018.0
20240225014016 53 180 4.0 10.0 0.00 0.00 0.00 8 1018.4
20240225013016 54 203 3.0 8.0 0.00 0.00 0.00 9 1018.3
20240225012016 54 203 2.0 5.0 0.00 0.00 0.00 8 1017.8
20240225011016 55 203 3.0 8.0 0.00 0.00 0.00 8 1018.7
20240225010016 55 203 2.0 6.0 0.00 0.00 0.00 8 1018.6
20240225005016 55 203 1.0 6.0 0.00 0.00 0.00 8 1018.0
20240225004016 56 203 3.0 7.0 0.00 0.00 0.00 7 1017.8
20240225003016 56 180 5.0 10.0 0.00 0.00 0.00 7 1017.7
20240225002016 57 203 5.0 10.0 0.00 0.00 0.00 7 1018.3
20240225001016 58 203 3.0 7.0 0.00 0.00 0.00 7 1018.3
20240225000016 58 180 3.0 12.0 0.00 0.00 0.00 7 1018.7
20240224235016 59 203 3.0 8.0 0.00 0.00 0.00 6 1019.1
20240224234037 59 203 1.0 5.0 0.00 0.00 0.00 6 1019.0
20240224233016 59 180 4.0 10.0 0.00 0.00 0.00 6 1018.9
20240224232016 60 203 2.0 9.0 0.00 0.00 0.00 7 1018.9
20240224231016 60 203 4.0 9.0 0.00 0.00 0.00 7 1019.0
20240224230016 60 225 4.0 7.0 0.00 0.00 0.00 7 1018.7
20240224225036 60 203 5.0 8.0 0.00 0.00 0.00 7 1018.7
20240224224016 61 203 4.0 9.0 0.00 0.00 0.00 6 1019.0
20240224223016 61 203 4.0 8.0 0.00 0.00 0.00 6 1019.0
20240224222016 61 203 3.0 9.0 0.00 0.00 0.00 6 1019.2
20240224221016 61 225 6.0 12.0 0.00 0.00 0.00 6 1018.6
20240224220016 61 180 4.0 9.0 0.00 0.00 0.00 6 1019.0
20240224215016 61 203 4.0 9.0 0.00 0.00 0.00 6 1019.0
20240224214016 61 203 5.0 9.0 0.00 0.00 0.00 6 1019.6
20240224213036 61 203 3.0 7.0 0.00 0.00 0.00 7 1019.6
20240224212016 61 203 4.0 9.0 0.00 0.00 0.00 7 1019.6
20240224211016 60 203 2.0 6.0 0.00 0.00 0.00 7 1018.9
20240224210016 60 203 6.0 10.0 0.00 0.00 0.00 7 1018.5
20240224205016 60 203 8.0 12.0 0.00 0.00 0.00 7 1018.6
20240224204016 59 203 8.0 12.0 0.00 0.00 0.00 7 1018.7
20240224203016 59 203 7.0 12.0 0.00 0.00 0.00 7 1018.6
20240224202016 60 203 8.0 13.0 0.00 0.00 0.00 8 1018.8
20240224201016 59 225 8.0 12.0 0.00 0.00 0.00 7 1019.0
20240224200016 59 225 8.0 12.0 0.00 0.00 0.00 7 1018.9
20240224195016 59 203 7.0 12.0 0.00 0.00 0.00 8 1019.1
20240224194016 58 203 5.0 11.0 0.00 0.00 0.00 8 1019.4
20240224193016 59 225 7.0 11.0 0.00 0.00 0.00 8 1019.9
20240224192016 58 203 6.0 12.0 0.00 0.00 0.00 9 1020.1
20240224191017 58 203 3.0 11.0 0.00 0.00 0.00 9 1020.3
20240224190036 58 225 4.0 10.0 0.00 0.00 0.00 9 1020.5
20240224185016 58 203 5.0 10.0 0.00 0.00 0.00 8 1020.7
20240224184016 57 225 5.0 11.0 0.00 0.00 0.00 9 1020.9
20240224183016 57 203 5.0 9.0 0.00 0.00 0.00 9 1021.1
20240224182016 57 225 4.0 8.0 0.00 0.00 0.00 9 1021.3
20240224181016 57 203 5.0 10.0 0.00 0.00 0.00 9 1021.3
20240224180016 56 203 6.0 11.0 0.00 0.00 0.00 9 1021.5
20240224175015 56 203 5.0 11.0 0.00 0.00 0.00 9 1021.5
20240224174016 56 180 5.0 10.0 0.00 0.00 0.00 9 1021.7
20240224173015 55 225 6.0 11.0 0.00 0.00 0.00 9 1022.0
20240224172016 54 203 4.0 11.0 0.00 0.00 0.00 9 1021.8
20240224171016 49 109 0.0 0.0 0.00 0.00 0.00 14 1020.6
20240224170056 48 185 0.0 0.0 0.00 0.00 0.00 13 1020.8
20240224165015 47 185 0.0 0.0 0.00 0.00 0.00 14 1020.4
20240224164016 46 185 0.0 0.0 0.00 0.00 0.00 13 1020.5
20240224163016 45 185 0.0 0.0 0.00 0.00 0.00 14 1020.7
20240224162016 44 185 0.0 0.0 0.00 0.00 0.00 15 1020.8
20240224161016 43 185 0.0 0.0 0.00 0.00 0.00 16 1020.6
20240224160016 42 185 0.0 0.0 0.00 0.00 0.00 16 1020.7
20240224155016 42 185 0.0 0.0 0.00 0.00 0.00 19 1020.8
20240224154016 41 185 0.0 0.0 0.00 0.00 0.00 21 1020.9
20240224153016 41 185 0.0 0.0 0.00 0.00 0.00 23 1021.6
20240224152015 41 0.0 3.0 0.00 0.00 0.00 16 1021.6
20240224151015 40 0.0 2.0 0.00 0.00 0.00 17 1021.5
20240224150016 38 0.0 3.0 0.00 0.00 0.00 19 1021.6
20240224145016 37 192 0.0 0.0 0.00 0.00 0.00 22 1021.3
20240224144016 36 192 0.0 0.0 0.00 0.00 0.00 21 1021.3
20240224143016 36 192 0.0 0.0 0.00 0.00 0.00 20 1021.3
20240224142015 36 192 0.0 0.0 0.00 0.00 0.00 20 1021.6
20240224141035 33 0.0 3.0 0.00 0.00 0.00 22 1020.7
20240224140016 32 179 0.0 0.0 0.00 0.00 0.00 23 1020.6
20240224135016 33 179 0.0 0.0 0.00 0.00 0.00 23 1020.5
20240224134016 35 179 0.0 0.0 0.00 0.00 0.00 22 1020.9
20240224133015 35 196 0.0 0.0 0.00 0.00 0.00 20 1020.8
20240224132016 33 196 0.0 0.0 0.00 0.00 0.00 24 1020.4
20240224131015 35 196 0.0 0.0 0.00 0.00 0.00 21 1021.5
20240224130015 35 0.0 3.0 0.00 0.00 0.00 20 1020.9
20240224125016 33 210 0.0 0.0 0.00 0.00 0.00 24 1020.7
20240224124016 33 210 0.0 0.0 0.00 0.00 0.00 22 1020.1
20240224123015 33 166 0.0 0.0 0.00 0.00 0.00 20 1020.5
20240224122015 33 166 0.0 0.0 0.00 0.00 0.00 21 1020.5
20240224121015 33 166 0.0 0.0 0.00 0.00 0.00 21 1020.9